Aviation Digital Data Service (ADDS)

Output produced by METARs form (1120 UTC 22 July 2014)
found at http://aviationweather.gov/adds/metars/
 
KCON 220912Z 2209/2306 VRB03KT P6SM SCT100 
     FM221300 22006KT P6SM FEW050